North Dighton, MA

41° 51' 30"N, 71° 08' 44"W, Elevation 95 ft.
Eastern Time

Hourly observations for the last 72 hours

Date Time Temperature (°F) Humi-
dity

(%)
Wind
(mph)
Pressure Rain (in) Sun
(W/m2)
UV ET
(in)
Air Dew 6 Hour 1 Hr 3 Hr 6 Hr Day
Alt
(in)
Sea
Level

(mb)
Max Min
30 01:00 73.1 71.3 94 SSE 13 G 24 29.69 1005.6 0.00 0 0.0 0.000
30 00:00 72.3 70.5 94 SE 4 G 11 29.74 1007.1 0.00 0 0.0 0.068
29 23:00 72.3 70.5 94 SSE 7 G 12 29.78 1008.6 0.00 0 0.0 0.067
29 22:00 71.9 70.1 94 SSE 7 G 14 29.81 1009.5 0.00 0 0.0 0.066
29 21:00 70.4 67.0 89 S 4 G 11 29.83 1010.1 0.00 0 0.0 0.065
29 20:00 69.5 65.8 75.4 68.9 88 SSE 3 G 9 29.83 1010.2 0.00 0 0.0 0.064
29 19:00 70.3 65.9 86 S 1 G 4 29.83 1010.3 0.00 0 0.0 0.063
29 18:00 71.8 66.4 83 S 4 G 6 29.84 1010.6 0.00 23 0.0 0.062
29 17:00 72.7 66.5 81 S 4 G 7 29.84 1010.6 0.00 70 0.0 0.059
29 16:00 74.7 66.3 75 S 5 G 9 29.85 1010.9 0.00 44 0.0 0.052
29 15:00 74.2 67.3 79 S 6 G 16 29.86 1011.2 0.00 308 1.8 0.044
29 14:00 73.8 65.8 74.7 64.5 76 SSW 5 G 15 29.86 1011.3 0.00 253 2.0 0.036
29 13:00 74.1 66.8 78 S 8 G 13 29.89 1012.2 0.00 306 3.1 0.024
29 12:00 72.2 67.1 84 SSE 7 G 12 29.91 1012.9 0.00 475 3.6 0.016
29 11:00 69.8 65.4 86 S 8 G 12 29.93 1013.7 0.00 292 2.4 0.010
29 10:00 69.9 65.5 86 S 6 G 10 29.94 1014.0 0.00 540 2.3 0.003
29 09:00 65.9 63.8 93 S 3 G 6 29.94 1014.0 0.00 102 0.7 0.001
29 08:00 64.5 63.0 65.4 64.2 95 SSE 4 G 9 29.93 1013.5 0.00 69 0.0 0.000
29 07:00 64.3 63.1 96 S 1 G 5 29.92 1013.4 0.00 9 0.0 0.000
29 06:00 64.4 63.2 96 S 2 G 6 29.92 1013.1 0.00 0 0.0 0.000
29 05:00 64.6 63.4 96 SSW 0 G 4 29.92 1013.2 0.00 0 0.0 0.000
29 04:00 64.8 63.6 96 SSE 4 G 6 29.92 1013.3 0.00 0 0.0 0.000
29 03:00 65.0 63.8 96 WSW 2 G 6 29.92 1013.4 0.00 0 0.0 0.000
29 02:00 65.4 64.2 67.2 65.4 96 S 1 G 6 29.94 1014.0 0.00 0 0.0 0.000
29 01:00 65.7 64.2 95 S 2 G 6 29.94 1013.9 0.00 0 0.0 0.000
29 00:00 66.0 64.5 95 SSE 4 G 7 29.93 1013.7 0.30 0 0.0 0.066
28 23:00 66.2 64.7 95 SSW 1 G 5 29.94 1013.8 0.30 0 0.0 0.066
28 22:00 66.2 65.0 96 S 2 G 7 29.94 1013.8 0.30 0 0.0 0.066
28 21:00 66.5 65.0 95 S 4 G 14 29.93 1013.7 0.30 0 0.0 0.066
28 20:00 67.2 65.7 71.5 67.1 95 SW 2 G 6 29.92 1013.4 0.08 0.30 0 0.0 0.066
28 19:00 68.2 65.8 92 S 4 G 5 29.91 1013.0 0.30 0 0.0 0.066
28 18:00 71.0 67.6 89 SE 4 G 11 29.91 1012.9 0.30 30 0.0 0.063
28 17:00 70.7 67.9 91 SSE 4 G 7 29.91 1013.0 0.08 0.30 104 0.0 0.059
28 16:00 71.3 68.5 91 S 5 G 10 29.92 1013.1 0.30 264 1.3 0.052
28 15:00 69.4 67.6 94 S 5 G 9 29.92 1013.4 0.08 0.30 160 1.1 0.049
28 14:00 70.0 67.9 76.7 69.8 93 SW 2 G 10 29.94 1013.8 0.21 0.22 0.22 0.22 130 1.2 0.047
28 13:00 72.8 69.7 90 S 3 G 9 29.94 1014.1 0.01 0.01 98 0.9 0.042
28 12:00 76.7 68.6 76 S 9 G 18 29.94 1013.9 0.00 522 2.9 0.029
28 11:00 76.2 67.7 75 S 7 G 16 29.96 1014.5 0.00 608 3.6 0.017
28 10:00 74.3 68.8 83 SSE 8 G 15 29.96 1014.6 0.00 582 2.5 0.008
28 09:00 72.5 68.4 87 SSE 6 G 11 29.95 1014.3 0.00 171 1.1 0.002
28 08:00 69.9 67.8 71.2 68.7 93 SSE 5 G 9 29.95 1014.3 0.00 102 0.0 0.000
28 07:00 68.9 67.4 95 SSE 3 G 9 29.94 1013.8 0.00 23 0.0 0.000
28 06:00 69.7 68.5 96 S 8 G 12 29.92 1013.4 0.00 0 0.0 0.000
28 05:00 70.4 69.5 97 S 7 G 19 29.93 1013.4 0.00 0 0.0 0.000
28 04:00 70.4 69.5 97 S 8 G 14 29.93 1013.4 0.00 0 0.0 0.000
28 03:00 71.2 70.3 97 SSE 6 G 16 29.93 1013.7 0.00 0 0.0 0.000
28 02:00 70.1 69.5 70.3 65.3 98 SSE 5 G 10 29.95 1014.1 0.00 0 0.0 0.000
28 01:00 68.2 67.3 97 ESE 3 G 7 29.95 1014.3 0.00 0 0.0 0.000
28 00:00 66.1 65.2 97 SE 2 G 4 29.96 1014.6 0.00 0 0.0 0.071
27 23:00 66.1 64.9 96 SE 2 G 4 29.97 1014.9 0.00 0 0.0 0.071
27 22:00 66.8 65.6 96 SSE 0 G 4 29.97 1015.0 0.00 0 0.0 0.071
27 21:00 68.1 66.0 93 Calm 29.97 1015.0 0.00 0 0.0 0.071
27 20:00 70.3 67.5 78.4 70.2 91 Calm 29.97 1014.9 0.00 0 0.0 0.070
27 19:00 72.1 68.7 89 SSE 5 G 10 29.96 1014.7 0.00 0 0.0 0.069
27 18:00 73.8 69.4 86 S 7 G 13 29.96 1014.5 0.00 26 0.0 0.066
27 17:00 75.6 70.1 83 S 4 G 12 29.96 1014.5 0.00 120 0.0 0.061
27 16:00 76.6 70.3 81 SSW 4 G 16 29.97 1014.8 0.00 171 1.1 0.053
27 15:00 75.4 70.2 84 S 5 G 13 29.98 1015.1 0.00 343 2.1 0.046
27 14:00 78.4 69.8 78.7 65.2 75 S 9 G 16 29.98 1015.2 0.00 244 1.8 0.035
27 13:00 77.2 69.4 77 SSW 6 G 12 29.99 1015.7 0.00 334 2.6 0.026
27 12:00 76.1 68.7 78 S 7 G 18 30.00 1016.1 0.00 246 2.6 0.016
27 11:00 74.4 68.9 83 S 6 G 9 30.01 1016.3 0.00 842 4.2 0.007
27 10:00 69.1 68.2 97 WSW 1 G 5 30.03 1016.9 0.00 304 2.6 0.003
27 09:00 66.6 66.0 98 SE 4 G 8 30.03 1016.9 0.00 134 0.6 0.001
27 08:00 65.2 64.3 65.3 64.8 97 SE 3 G 9 30.02 1016.7 0.00 62 0.0 0.000
27 07:00 64.9 64.0 97 Calm 30.01 1016.4 0.00 12 0.0 0.000
27 06:00 65.0 64.1 97 Calm 30.01 1016.3 0.00 0 0.0 0.000
27 05:00 64.9 63.7 96 Calm 30.01 1016.4 0.00 0 0.0 0.000
27 04:00 64.9 63.4 95 Calm 30.01 1016.3 0.00 0 0.0 0.000
27 03:00 64.9 63.4 95 Calm 30.01 1016.4 0.00 0 0.0 0.000
27 02:00 65.1 63.0 67.0 63.8 93 ESE 0 G 4 30.02 1016.6 0.00 0 0.0 0.000

Data generated by WxSolution Version 1.9.1.8, Build 2020.04.28.